createdAt,value
2022-12-29T00:00:56.731Z,95656.72
2022-12-29T00:02:01.289Z,95659.34
2022-12-29T00:03:03.567Z,95656.91
2022-12-29T00:04:14.330Z,95667.31
2022-12-29T00:05:16.896Z,95662.91
2022-12-29T00:06:21.463Z,95660.06
2022-12-29T00:07:25.982Z,95662.56
2022-12-29T00:08:41.062Z,95664.06
2022-12-29T00:09:48.790Z,95664.88
2022-12-29T00:10:50.668Z,95664.19
2022-12-29T00:11:55.174Z,95663.50
2022-12-29T00:13:12.187Z,95664.06
2022-12-29T00:14:29.648Z,95666.31
2022-12-29T00:15:40.714Z,95660.88
2022-12-29T00:16:47.135Z,95659.06
2022-12-29T00:17:49.034Z,95654.06
2022-12-29T00:18:54.105Z,95654.81
2022-12-29T00:20:11.069Z,95651.47
2022-12-29T00:21:30.697Z,95648.03
2022-12-29T00:22:47.780Z,95647.72
2022-12-29T00:24:04.621Z,95647.50
2022-12-29T00:25:31.655Z,95643.47
2022-12-29T00:26:49.299Z,95644.34
2022-12-29T00:28:07.413Z,95643.31
2022-12-29T00:29:25.044Z,95634.81
2022-12-29T00:30:42.039Z,95644.16
2022-12-29T00:31:59.032Z,95641.25
2022-12-29T00:33:16.039Z,95642.84
2022-12-29T00:34:35.096Z,95640.00
2022-12-29T00:35:44.317Z,95633.09
2022-12-29T00:36:46.375Z,95631.97
2022-12-29T00:38:04.396Z,95623.94
2022-12-29T00:39:26.260Z,95629.84
2022-12-29T00:40:45.861Z,95629.09
2022-12-29T00:42:03.750Z,95623.25
2022-12-29T00:43:20.814Z,95625.66
2022-12-29T00:44:25.311Z,95619.66
2022-12-29T00:45:27.224Z,95622.19
2022-12-29T00:46:31.819Z,95626.41
2022-12-29T00:47:33.775Z,95617.94
2022-12-29T00:48:51.362Z,95613.47
2022-12-29T00:49:55.867Z,95615.59
2022-12-29T00:50:57.944Z,95613.66
2022-12-29T00:52:05.551Z,95607.44
2022-12-29T00:53:07.432Z,95613.34
2022-12-29T00:54:12.423Z,95618.38
2022-12-29T00:55:14.477Z,95620.81
2022-12-29T00:56:21.736Z,95619.91
2022-12-29T00:57:26.224Z,95623.81
2022-12-29T00:58:28.708Z,95617.66
2022-12-29T00:59:33.177Z,95612.66
2022-12-29T01:00:36.077Z,95615.84
2022-12-29T01:01:42.165Z,95618.44
2022-12-29T01:02:44.295Z,95616.69
2022-12-29T01:03:48.921Z,95614.16
2022-12-29T01:04:53.421Z,95612.50
2022-12-29T01:05:55.394Z,95618.34
2022-12-29T01:06:59.936Z,95611.44
2022-12-29T01:08:01.893Z,95606.72
2022-12-29T01:09:19.365Z,95613.34
2022-12-29T01:10:23.889Z,95608.28
2022-12-29T01:11:28.405Z,95611.00
2022-12-29T01:12:51.001Z,95611.75
2022-12-29T01:13:56.005Z,95611.59
2022-12-29T01:14:57.919Z,95607.41
2022-12-29T01:16:02.832Z,95610.91
2022-12-29T01:17:05.200Z,95607.00
2022-12-29T01:18:09.842Z,95610.47
2022-12-29T01:19:12.252Z,95604.41
2022-12-29T01:20:17.261Z,95609.63
2022-12-29T01:21:20.268Z,95616.50
2022-12-29T01:22:24.732Z,95617.22
2022-12-29T01:23:26.771Z,95611.16
2022-12-29T01:24:31.729Z,95616.78
2022-12-29T01:25:33.644Z,95613.19
2022-12-29T01:26:40.877Z,95614.88
2022-12-29T01:27:42.764Z,95612.22
2022-12-29T01:28:48.073Z,95613.19
2022-12-29T01:29:49.972Z,95616.50
2022-12-29T01:30:54.481Z,95616.41
2022-12-29T01:31:56.504Z,95612.94
2022-12-29T01:33:01.036Z,95610.41
2022-12-29T01:34:03.277Z,95617.31
2022-12-29T01:35:08.744Z,95617.09
2022-12-29T01:36:13.234Z,95613.44
2022-12-29T01:37:18.703Z,95617.47
2022-12-29T01:38:20.636Z,95621.59
2022-12-29T01:39:25.366Z,95621.94
2022-12-29T01:40:27.321Z,95614.97
2022-12-29T01:41:32.583Z,95626.19
2022-12-29T01:42:37.097Z,95619.03
2022-12-29T01:43:44.641Z,95621.03
2022-12-29T01:44:52.911Z,95622.41
2022-12-29T01:45:58.650Z,95622.63
2022-12-29T01:47:00.918Z,95621.97
2022-12-29T01:48:08.717Z,95625.28
2022-12-29T01:49:15.488Z,95623.63
2022-12-29T01:50:26.715Z,95626.19
2022-12-29T01:51:31.840Z,95630.06
2022-12-29T01:52:39.203Z,95631.22
2022-12-29T01:53:41.342Z,95634.00
2022-12-29T01:54:51.234Z,95628.94
2022-12-29T01:55:57.504Z,95632.34
2022-12-29T01:57:05.958Z,95629.84
2022-12-29T01:58:14.220Z,95627.56
2022-12-29T01:59:23.719Z,95624.59
2022-12-29T02:00:25.656Z,95625.44
2022-12-29T02:01:30.692Z,95619.50
2022-12-29T02:02:33.683Z,95623.53
2022-12-29T02:03:39.984Z,95625.38
2022-12-29T02:04:45.647Z,95628.94
2022-12-29T02:05:54.208Z,95623.16
2022-12-29T02:07:00.991Z,95616.19
2022-12-29T02:08:05.691Z,95621.19
2022-12-29T02:09:07.607Z,95614.94
2022-12-29T02:10:12.150Z,95615.03
2022-12-29T02:11:14.939Z,95613.59
2022-12-29T02:12:20.347Z,95609.31
2022-12-29T02:13:25.276Z,95618.53
2022-12-29T02:14:29.778Z,95624.25
2022-12-29T02:15:41.594Z,95610.50
2022-12-29T02:17:00.418Z,95611.75
2022-12-29T02:18:22.116Z,95609.56
2022-12-29T02:20:02.279Z,95610.56
2022-12-29T02:21:36.702Z,95607.34
2022-12-29T02:22:54.775Z,95610.78
2022-12-29T02:24:23.683Z,95607.28
2022-12-29T02:25:46.482Z,95613.50
2022-12-29T02:27:05.698Z,95611.00
2022-12-29T02:28:51.187Z,95604.09
2022-12-29T02:30:06.358Z,95602.19
2022-12-29T02:31:24.843Z,95620.22
2022-12-29T02:32:33.039Z,95604.00
2022-12-29T02:33:51.837Z,95609.31
2022-12-29T02:35:05.292Z,95605.75
2022-12-29T02:36:20.654Z,95599.75
2022-12-29T02:37:32.049Z,95596.19
2022-12-29T02:38:52.179Z,95594.53
2022-12-29T02:40:02.685Z,95600.53
2022-12-29T02:41:15.565Z,95595.38
2022-12-29T02:42:25.055Z,95594.53
2022-12-29T02:43:37.261Z,95585.19
2022-12-29T02:44:52.739Z,95584.13
2022-12-29T02:46:01.438Z,95584.38
2022-12-29T02:47:15.673Z,95590.34
2022-12-29T02:48:24.355Z,95589.75
2022-12-29T02:49:36.199Z,95588.00
2022-12-29T02:50:40.474Z,95585.19
2022-12-29T02:51:55.511Z,95594.00
2022-12-29T02:53:00.699Z,95583.50
2022-12-29T02:54:17.710Z,95582.81
2022-12-29T02:55:22.897Z,95583.91
2022-12-29T02:56:25.720Z,95585.03
2022-12-29T02:57:36.344Z,95591.56
2022-12-29T02:58:38.298Z,95592.31
2022-12-29T02:59:43.482Z,95587.91
2022-12-29T03:00:57.408Z,95584.97
2022-12-29T03:02:22.931Z,95588.28
2022-12-29T03:03:37.585Z,95592.16
2022-12-29T03:04:51.540Z,95587.69
2022-12-29T03:06:16.454Z,95584.34
2022-12-29T03:07:29.466Z,95582.34
2022-12-29T03:08:42.050Z,95572.53
2022-12-29T03:09:53.532Z,95582.53
2022-12-29T03:11:04.293Z,95582.38
2022-12-29T03:12:17.262Z,95574.78
2022-12-29T03:13:44.462Z,95575.72
2022-12-29T03:15:09.757Z,95575.41
2022-12-29T03:16:22.633Z,95575.94
2022-12-29T03:17:33.801Z,95569.59
2022-12-29T03:18:53.878Z,95567.41
2022-12-29T03:20:02.630Z,95570.59
2022-12-29T03:21:11.917Z,95564.69
2022-12-29T03:22:32.474Z,95559.66
2022-12-29T03:23:40.462Z,95566.78
2022-12-29T03:24:47.870Z,95568.28
2022-12-29T03:25:57.553Z,95569.03
2022-12-29T03:27:02.215Z,95567.66
2022-12-29T03:28:10.406Z,95545.50
2022-12-29T03:29:14.752Z,95556.28
2022-12-29T03:30:20.543Z,95555.28
2022-12-29T03:31:25.483Z,95557.09
2022-12-29T03:32:37.164Z,95546.75
2022-12-29T03:33:39.630Z,95557.03
2022-12-29T03:34:44.648Z,95558.53
2022-12-29T03:35:49.465Z,95555.94
2022-12-29T03:36:57.486Z,95548.41
2022-12-29T03:38:04.195Z,95548.81
2022-12-29T03:39:14.938Z,95548.69
2022-12-29T03:40:17.820Z,95546.22
2022-12-29T03:41:26.956Z,95558.28
2022-12-29T03:42:33.599Z,95557.28
2022-12-29T03:43:38.725Z,95552.28
2022-12-29T03:44:44.209Z,95548.09
2022-12-29T03:45:48.727Z,95553.28
2022-12-29T03:46:54.122Z,95553.16
2022-12-29T03:47:58.619Z,95560.09
2022-12-29T03:49:03.143Z,95550.22
2022-12-29T03:50:06.067Z,95557.09
2022-12-29T03:51:10.584Z,95550.59
2022-12-29T03:52:12.546Z,95546.22
2022-12-29T03:53:17.127Z,95543.75
2022-12-29T03:54:19.074Z,95543.09
2022-12-29T03:55:23.614Z,95529.97
2022-12-29T03:56:25.579Z,95543.81
2022-12-29T03:57:30.119Z,95551.59
2022-12-29T03:58:32.052Z,95551.59
2022-12-29T03:59:36.533Z,95557.63
2022-12-29T04:00:38.477Z,95550.50
2022-12-29T04:01:43.083Z,95558.75
2022-12-29T04:02:45.237Z,95549.41
2022-12-29T04:03:52.622Z,95553.75
2022-12-29T04:04:54.667Z,95554.94
2022-12-29T04:05:59.207Z,95543.31
2022-12-29T04:07:01.165Z,95542.78
2022-12-29T04:08:05.776Z,95542.03
2022-12-29T04:09:07.995Z,95550.56
2022-12-29T04:10:13.036Z,95546.91
2022-12-29T04:11:15.790Z,95539.81
2022-12-29T04:12:20.338Z,95536.69
2022-12-29T04:13:22.280Z,95539.13
2022-12-29T04:14:26.831Z,95548.16
2022-12-29T04:15:28.804Z,95538.69
2022-12-29T04:16:36.737Z,95540.56
2022-12-29T04:17:38.880Z,95545.16
2022-12-29T04:18:43.386Z,95550.50
2022-12-29T04:19:48.862Z,95556.28
2022-12-29T04:21:05.522Z,95544.16
2022-12-29T04:22:07.495Z,95555.63
2022-12-29T04:23:11.992Z,95555.94
2022-12-29T04:24:14.230Z,95551.63
2022-12-29T04:25:19.619Z,95554.09
2022-12-29T04:26:21.507Z,95559.28
2022-12-29T04:27:26.014Z,95556.34
2022-12-29T04:28:28.446Z,95559.22
2022-12-29T04:29:33.038Z,95560.97
2022-12-29T04:30:36.029Z,95555.22
2022-12-29T04:31:40.550Z,95552.78
2022-12-29T04:32:42.515Z,95548.63
2022-12-29T04:33:47.189Z,95561.72
2022-12-29T04:34:51.731Z,95554.59
2022-12-29T04:35:56.774Z,95552.13
2022-12-29T04:36:58.790Z,95563.97
2022-12-29T04:38:03.521Z,95566.47
2022-12-29T04:39:08.321Z,95564.56
2022-12-29T04:40:11.924Z,95563.97
2022-12-29T04:41:16.473Z,95565.72
2022-12-29T04:42:19.024Z,95560.63
2022-12-29T04:43:23.547Z,95564.22
2022-12-29T04:44:25.443Z,95566.63
2022-12-29T04:45:30.235Z,95557.88
2022-12-29T04:46:32.190Z,95569.81
2022-12-29T04:47:36.699Z,95571.22
2022-12-29T04:48:38.586Z,95568.69
2022-12-29T04:49:43.112Z,95568.69
2022-12-29T04:50:49.950Z,95570.28
2022-12-29T04:51:54.458Z,95559.94
2022-12-29T04:52:56.412Z,95554.41
2022-12-29T04:54:01.276Z,95565.94
2022-12-29T04:55:04.065Z,95564.94
2022-12-29T04:56:10.175Z,95565.09
2022-12-29T04:57:12.208Z,95561.75
2022-12-29T04:58:22.421Z,95565.09
2022-12-29T04:59:24.970Z,95568.09
2022-12-29T05:00:29.609Z,95554.22
2022-12-29T05:01:31.685Z,95550.34
2022-12-29T05:02:36.416Z,95549.09
2022-12-29T05:03:38.544Z,95556.09
2022-12-29T05:04:43.618Z,95557.28
2022-12-29T05:05:48.159Z,95551.28
2022-12-29T05:06:52.698Z,95562.28
2022-12-29T05:07:54.618Z,95550.28
2022-12-29T05:08:59.090Z,95549.19
2022-12-29T05:10:02.005Z,95552.63
2022-12-29T05:11:06.534Z,95557.78
2022-12-29T05:12:08.717Z,95553.09
2022-12-29T05:13:13.203Z,95557.63
2022-12-29T05:14:15.104Z,95563.13
2022-12-29T05:15:19.772Z,95552.94
2022-12-29T05:16:21.793Z,95550.59
2022-12-29T05:17:26.427Z,95557.69
2022-12-29T05:18:28.320Z,95555.59
2022-12-29T05:19:32.811Z,95560.88
2022-12-29T05:20:35.453Z,95558.97
2022-12-29T05:21:42.577Z,95547.84
2022-12-29T05:22:44.548Z,95547.78
2022-12-29T05:23:49.038Z,95550.19
2022-12-29T05:24:50.982Z,95561.63
2022-12-29T05:25:55.466Z,95557.97
2022-12-29T05:26:57.383Z,95564.13
2022-12-29T05:28:01.926Z,95560.22
2022-12-29T05:29:03.820Z,95560.88
2022-12-29T05:30:10.075Z,95560.34
2022-12-29T05:31:12.024Z,95551.53
2022-12-29T05:32:17.703Z,95555.19
2022-12-29T05:33:23.475Z,95568.28
2022-12-29T05:34:25.494Z,95567.78
2022-12-29T05:35:29.981Z,95563.44
2022-12-29T05:36:37.457Z,95564.28
2022-12-29T05:37:45.196Z,95562.13
2022-12-29T05:38:47.128Z,95565.59
2022-12-29T05:39:51.578Z,95553.59
2022-12-29T05:40:53.799Z,95555.41
2022-12-29T05:41:58.329Z,95551.19
2022-12-29T05:43:00.301Z,95551.41
2022-12-29T05:44:05.408Z,95546.00
2022-12-29T05:45:09.397Z,95551.78
2022-12-29T05:46:14.166Z,95551.06
2022-12-29T05:47:16.634Z,95549.91
2022-12-29T05:48:21.916Z,95539.91
2022-12-29T05:49:23.820Z,95549.41
2022-12-29T05:50:28.332Z,95541.56
2022-12-29T05:51:30.353Z,95530.22
2022-12-29T05:52:34.831Z,95522.25
2022-12-29T05:53:39.347Z,95535.81
2022-12-29T05:54:43.832Z,95530.06
2022-12-29T05:55:48.992Z,95543.94
2022-12-29T05:56:53.792Z,95534.00
2022-12-29T05:57:55.683Z,95547.75
2022-12-29T05:59:00.255Z,95547.34
2022-12-29T06:00:02.440Z,95551.06
2022-12-29T06:01:06.959Z,95558.84
2022-12-29T06:02:11.588Z,95554.66
2022-12-29T06:03:13.823Z,95565.09
2022-12-29T06:04:18.609Z,95566.91
2022-12-29T06:05:20.517Z,95549.91
2022-12-29T06:06:25.122Z,95543.06
2022-12-29T06:07:27.132Z,95555.41
2022-12-29T06:08:31.612Z,95533.16
2022-12-29T06:09:36.136Z,95550.09
2022-12-29T06:10:40.621Z,95551.50
2022-12-29T06:11:42.545Z,95544.09
2022-12-29T06:12:47.262Z,95548.59
2022-12-29T06:13:49.159Z,95546.16
2022-12-29T06:14:53.642Z,95539.25
2022-12-29T06:15:55.603Z,95550.09
2022-12-29T06:17:00.971Z,95541.00
2022-12-29T06:18:03.146Z,95551.00
2022-12-29T06:19:07.751Z,95538.09
2022-12-29T06:20:11.759Z,95552.34
2022-12-29T06:21:16.256Z,95550.84
2022-12-29T06:22:19.234Z,95540.41
2022-12-29T06:23:23.965Z,95538.09
2022-12-29T06:24:25.874Z,95536.41
2022-12-29T06:25:34.516Z,95539.59
2022-12-29T06:26:36.425Z,95535.25
2022-12-29T06:27:40.943Z,95532.41
2022-12-29T06:28:42.848Z,95530.91
2022-12-29T06:29:47.436Z,95520.00
2022-12-29T06:30:49.748Z,95517.41
2022-12-29T06:31:57.270Z,95517.56
2022-12-29T06:32:59.712Z,95503.81
2022-12-29T06:34:08.358Z,95503.47
2022-12-29T06:35:11.015Z,95501.88
2022-12-29T06:36:15.530Z,95504.72
2022-12-29T06:37:19.134Z,95512.69
2022-12-29T06:38:23.608Z,95515.28
2022-12-29T06:39:25.551Z,95527.53
2022-12-29T06:40:32.755Z,95522.44
2022-12-29T06:41:34.895Z,95527.69
2022-12-29T06:42:39.571Z,95533.16
2022-12-29T06:43:41.512Z,95533.88
2022-12-29T06:44:46.019Z,95535.69
2022-12-29T06:45:48.029Z,95533.31
2022-12-29T06:46:53.145Z,95544.44
2022-12-29T06:47:55.059Z,95546.03
2022-12-29T06:48:59.596Z,95548.66
2022-12-29T06:50:01.834Z,95546.56
2022-12-29T06:51:06.605Z,95548.47
2022-12-29T06:52:12.774Z,95551.38
2022-12-29T06:53:18.285Z,95549.47
2022-12-29T06:54:20.188Z,95553.88
2022-12-29T06:55:24.708Z,95550.69
2022-12-29T06:56:29.253Z,95552.06
2022-12-29T06:57:33.805Z,95552.06
2022-12-29T06:58:35.728Z,95552.50
2022-12-29T06:59:40.301Z,95552.69
2022-12-29T07:00:42.283Z,95550.03
2022-12-29T07:01:46.961Z,95553.28
2022-12-29T07:02:49.034Z,95559.06
2022-12-29T07:03:53.611Z,95554.94
2022-12-29T07:04:55.540Z,95549.78
2022-12-29T07:06:00.037Z,95560.03
2022-12-29T07:07:01.956Z,95558.28
2022-12-29T07:08:06.815Z,95557.53
2022-12-29T07:09:09.836Z,95560.09
2022-12-29T07:10:14.367Z,95560.56
2022-12-29T07:11:16.279Z,95561.53
2022-12-29T07:12:24.390Z,95558.38
2022-12-29T07:13:26.309Z,95567.19
2022-12-29T07:14:30.817Z,95557.69
2022-12-29T07:15:35.290Z,95556.69
2022-12-29T07:16:37.334Z,95557.22
2022-12-29T07:17:41.916Z,95549.63
2022-12-29T07:18:44.082Z,95557.63
2022-12-29T07:19:48.587Z,95554.81
2022-12-29T07:20:50.591Z,95550.50
2022-12-29T07:21:55.078Z,95547.50
2022-12-29T07:22:57.107Z,95548.28
2022-12-29T07:24:01.623Z,95554.94
2022-12-29T07:25:04.461Z,95546.59
2022-12-29T07:26:11.625Z,95553.66
2022-12-29T07:27:14.059Z,95556.84
2022-12-29T07:28:21.244Z,95545.75
2022-12-29T07:29:23.430Z,95543.97
2022-12-29T07:30:28.020Z,95547.16
2022-12-29T07:31:30.193Z,95544.25
2022-12-29T07:32:36.693Z,95548.50
2022-12-29T07:33:38.587Z,95543.00
2022-12-29T07:34:43.254Z,95548.38
2022-12-29T07:35:45.243Z,95549.31
2022-12-29T07:36:49.734Z,95553.81
2022-12-29T07:37:51.691Z,95545.91
2022-12-29T07:38:56.239Z,95554.72
2022-12-29T07:39:58.276Z,95553.66
2022-12-29T07:41:02.865Z,95548.50
2022-12-29T07:42:05.426Z,95557.13
2022-12-29T07:43:10.118Z,95551.06
2022-12-29T07:44:14.651Z,95549.53
2022-12-29T07:45:19.279Z,95552.91
2022-12-29T07:46:54.266Z,95556.53
2022-12-29T07:47:45.423Z,95554.56
2022-12-29T07:48:48.187Z,95561.81
2022-12-29T07:49:52.710Z,95558.38
2022-12-29T07:50:54.959Z,95563.28
2022-12-29T07:51:59.462Z,95555.47
2022-12-29T07:53:01.581Z,95564.38
2022-12-29T07:54:07.876Z,95560.22
2022-12-29T07:55:10.236Z,95565.88
2022-12-29T07:56:14.725Z,95566.91
2022-12-29T07:57:16.813Z,95577.84
2022-12-29T07:58:21.324Z,95576.28
2022-12-29T07:59:25.924Z,95579.78
2022-12-29T08:00:30.457Z,95581.44
2022-12-29T08:01:32.613Z,95568.44
2022-12-29T08:02:37.246Z,95574.44
2022-12-29T08:03:40.813Z,95567.59
2022-12-29T08:04:45.362Z,95565.00
2022-12-29T08:05:47.333Z,95569.13
2022-12-29T08:06:52.080Z,95571.31
2022-12-29T08:07:54.001Z,95575.53
2022-12-29T08:09:00.554Z,95580.38
2022-12-29T08:10:10.294Z,95580.97
2022-12-29T08:11:12.178Z,95575.41
2022-12-29T08:12:16.746Z,95589.50
2022-12-29T08:13:18.740Z,95576.00
2022-12-29T08:14:23.508Z,95573.41
2022-12-29T08:15:32.341Z,95570.81
2022-12-29T08:16:37.283Z,95588.44
2022-12-29T08:17:39.488Z,95584.16
2022-12-29T08:18:44.170Z,95581.91
2022-12-29T08:19:46.179Z,95578.84
2022-12-29T08:20:55.565Z,95580.84
2022-12-29T08:22:00.431Z,95571.97
2022-12-29T08:23:02.357Z,95574.50
2022-12-29T08:24:07.836Z,95574.50
2022-12-29T08:25:12.497Z,95579.50
2022-12-29T08:26:14.486Z,95574.97
2022-12-29T08:27:21.035Z,95576.31
2022-12-29T08:28:23.500Z,95582.66
2022-12-29T08:29:28.203Z,95582.66
2022-12-29T08:30:35.367Z,95587.56
2022-12-29T08:31:37.317Z,95579.97
2022-12-29T08:32:41.863Z,95581.22
2022-12-29T08:33:43.786Z,95588.06
2022-12-29T08:34:48.433Z,95588.41
2022-12-29T08:35:50.461Z,95578.47
2022-12-29T08:36:54.944Z,95583.72
2022-12-29T08:37:59.462Z,95578.88
2022-12-29T08:39:01.389Z,95581.19
2022-12-29T08:40:06.855Z,95578.41
2022-12-29T08:41:08.840Z,95584.28
2022-12-29T08:42:13.399Z,95585.19
2022-12-29T08:43:18.499Z,95575.56
2022-12-29T08:44:23.266Z,95582.00
2022-12-29T08:45:25.203Z,95594.13
2022-12-29T08:46:32.408Z,95575.31
2022-12-29T08:47:34.385Z,95576.59
2022-12-29T08:48:38.892Z,95577.41
2022-12-29T08:49:43.405Z,95581.75
2022-12-29T08:50:45.419Z,95588.72
2022-12-29T08:51:49.930Z,95572.75
2022-12-29T08:52:54.460Z,95581.75
2022-12-29T08:53:56.449Z,95585.38
2022-12-29T08:55:00.971Z,95581.47
2022-12-29T08:56:05.372Z,95582.94
2022-12-29T08:57:10.271Z,95577.88
2022-12-29T08:58:15.447Z,95574.53
2022-12-29T08:59:19.960Z,95573.41
2022-12-29T09:00:22.104Z,95571.50
2022-12-29T09:01:26.755Z,95586.13
2022-12-29T09:02:34.073Z,95574.31
2022-12-29T09:04:12.981Z,95578.94
2022-12-29T09:05:03.356Z,95572.22
2022-12-29T09:06:05.450Z,95574.00
2022-12-29T09:07:10.059Z,95566.41
2022-12-29T09:08:12.199Z,95578.25
2022-12-29T09:09:18.168Z,95575.41
2022-12-29T09:10:23.082Z,95571.41
2022-12-29T09:11:28.827Z,95578.94
2022-12-29T09:12:36.597Z,95576.34
2022-12-29T09:13:38.914Z,95572.75
2022-12-29T09:14:43.999Z,95577.44
2022-12-29T09:15:46.465Z,95572.19
2022-12-29T09:17:03.532Z,95574.59
2022-12-29T09:18:14.927Z,95571.06
2022-12-29T09:19:22.172Z,95572.00
2022-12-29T09:20:26.687Z,95579.97
2022-12-29T09:21:28.776Z,95581.38
2022-12-29T09:22:33.328Z,95574.53
2022-12-29T09:23:38.167Z,95583.03
2022-12-29T09:24:42.666Z,95577.22
2022-12-29T09:25:47.273Z,95577.78
2022-12-29T09:26:49.177Z,95579.63
2022-12-29T09:27:54.202Z,95584.81
2022-12-29T09:28:56.122Z,95593.81
2022-12-29T09:30:00.740Z,95588.25
2022-12-29T09:31:02.961Z,95594.00
2022-12-29T09:32:10.562Z,95589.00
2022-12-29T09:33:20.409Z,95590.00
2022-12-29T09:34:22.412Z,95583.72
2022-12-29T09:35:26.893Z,95593.34
2022-12-29T09:36:28.790Z,95594.81
2022-12-29T09:37:33.428Z,95604.28
2022-12-29T09:38:37.976Z,95599.19
2022-12-29T09:39:39.987Z,95596.69
2022-12-29T09:40:44.505Z,95593.72
2022-12-29T09:41:56.760Z,95599.34
2022-12-29T09:43:34.186Z,95599.06
2022-12-29T09:44:49.367Z,95594.31
2022-12-29T09:46:04.764Z,95589.78
2022-12-29T09:47:11.235Z,95597.66
2022-12-29T09:48:26.856Z,95587.19
2022-12-29T09:49:42.133Z,95593.88
2022-12-29T09:50:48.184Z,95596.19
2022-12-29T09:51:56.290Z,95596.38
2022-12-29T09:53:06.087Z,95583.72
2022-12-29T09:54:27.479Z,95587.94
2022-12-29T09:55:37.955Z,95587.97
2022-12-29T09:56:40.556Z,95586.69
2022-12-29T09:57:50.267Z,95593.88
2022-12-29T09:58:56.767Z,95587.19
2022-12-29T10:00:06.387Z,95589.78
2022-12-29T10:01:27.745Z,95592.19
2022-12-29T10:02:41.521Z,95590.72
2022-12-29T10:03:51.770Z,95587.38
2022-12-29T10:04:53.933Z,95587.19
2022-12-29T10:06:07.702Z,95584.72
2022-12-29T10:07:29.584Z,95585.38
2022-12-29T10:08:42.109Z,95583.03
2022-12-29T10:09:57.435Z,95579.53
2022-12-29T10:11:10.997Z,95587.78
2022-12-29T10:12:25.578Z,95581.84
2022-12-29T10:13:43.661Z,95582.69
2022-12-29T10:14:59.467Z,95581.66
2022-12-29T10:16:09.237Z,95586.50
2022-12-29T10:17:27.828Z,95584.63
2022-12-29T10:18:56.152Z,95589.47
2022-12-29T10:20:11.561Z,95573.38
2022-12-29T10:21:28.569Z,95567.25
2022-12-29T10:22:47.613Z,95577.00
2022-12-29T10:23:55.289Z,95580.03
2022-12-29T10:25:03.690Z,95580.41
2022-12-29T10:26:14.423Z,95563.84
2022-12-29T10:27:20.042Z,95575.34
2022-12-29T10:28:26.368Z,95572.00
2022-12-29T10:29:37.472Z,95571.34
2022-12-29T10:30:40.338Z,95574.59
2022-12-29T10:31:47.587Z,95576.16
2022-12-29T10:32:53.941Z,95570.78
2022-12-29T10:34:05.651Z,95572.81
2022-12-29T10:35:13.928Z,95575.41
2022-12-29T10:36:22.703Z,95571.44
2022-12-29T10:37:34.449Z,95573.19
2022-12-29T10:38:47.827Z,95571.16
2022-12-29T10:39:55.855Z,95573.00
2022-12-29T10:41:04.400Z,95575.84
2022-12-29T10:42:17.480Z,95573.19
2022-12-29T10:43:25.673Z,95571.88
2022-12-29T10:44:35.744Z,95579.84
2022-12-29T10:45:40.696Z,95581.78
2022-12-29T10:46:44.858Z,95575.97
2022-12-29T10:47:57.445Z,95581.16
2022-12-29T10:49:04.937Z,95575.22
2022-12-29T10:50:08.608Z,95570.16
2022-12-29T10:51:13.233Z,95574.97
2022-12-29T10:52:21.114Z,95573.56
2022-12-29T10:53:28.499Z,95566.63
2022-12-29T10:54:40.073Z,95563.38
2022-12-29T10:55:45.709Z,95564.59
2022-12-29T10:56:53.100Z,95562.38
2022-12-29T10:58:05.747Z,95548.28
2022-12-29T10:59:15.284Z,95555.22
2022-12-29T11:00:22.344Z,95562.63
2022-12-29T11:01:26.907Z,95547.63
2022-12-29T11:02:51.307Z,95559.38
2022-12-29T11:04:09.201Z,95552.22
2022-12-29T11:05:23.514Z,95556.56
2022-12-29T11:06:27.003Z,95558.63
2022-12-29T11:07:32.424Z,95553.09
2022-12-29T11:08:42.132Z,95546.41
2022-12-29T11:09:47.734Z,95548.06
2022-12-29T11:10:59.690Z,95547.53
2022-12-29T11:12:04.329Z,95544.88
2022-12-29T11:13:13.710Z,95539.56
2022-12-29T11:14:23.345Z,95544.22
2022-12-29T11:15:27.948Z,95546.66
2022-12-29T11:16:32.367Z,95555.28
2022-12-29T11:17:47.114Z,95547.69
2022-12-29T11:18:49.069Z,95551.88
2022-12-29T11:19:56.169Z,95550.56
2022-12-29T11:21:02.435Z,95544.88
2022-12-29T11:22:15.201Z,95543.75
2022-12-29T11:23:34.187Z,95531.59
2022-12-29T11:24:48.177Z,95539.72
2022-12-29T11:26:10.190Z,95540.81
2022-12-29T11:27:18.008Z,95534.63
2022-12-29T11:28:19.934Z,95532.97
2022-12-29T11:29:28.616Z,95521.53
2022-12-29T11:30:32.746Z,95546.09
2022-12-29T11:31:44.602Z,95545.53
2022-12-29T11:32:55.174Z,95550.06
2022-12-29T11:33:57.226Z,95541.63
2022-12-29T11:35:05.201Z,95552.41
2022-12-29T11:36:12.071Z,95566.56
2022-12-29T11:37:20.405Z,95557.00
2022-12-29T11:38:26.654Z,95561.38
2022-12-29T11:39:37.795Z,95560.44
2022-12-29T11:40:40.561Z,95556.91
2022-12-29T11:41:45.596Z,95573.84
2022-12-29T11:42:54.718Z,95551.91
2022-12-29T11:43:59.363Z,95560.97
2022-12-29T11:45:11.225Z,95555.66
2022-12-29T11:46:17.133Z,95556.72
2022-12-29T11:47:32.173Z,95547.63
2022-12-29T11:48:40.502Z,95547.44
2022-12-29T11:49:45.123Z,95552.53
2022-12-29T11:50:55.336Z,95554.47
2022-12-29T11:52:00.331Z,95560.31
2022-12-29T11:53:06.371Z,95555.50
2022-12-29T11:54:19.674Z,95570.28
2022-12-29T11:55:27.916Z,95551.34
2022-12-29T11:56:40.920Z,95555.69
2022-12-29T11:57:47.918Z,95554.47
2022-12-29T11:58:51.667Z,95566.75
2022-12-29T11:59:57.266Z,95556.75
2022-12-29T12:01:02.772Z,95568.41
2022-12-29T12:02:24.467Z,95546.34
2022-12-29T12:03:33.787Z,95556.69
2022-12-29T12:04:38.585Z,95560.34
2022-12-29T12:05:53.457Z,95558.38
2022-12-29T12:07:04.426Z,95564.47
2022-12-29T12:08:20.506Z,95558.03
2022-12-29T12:09:28.632Z,95570.41
2022-12-29T12:10:39.658Z,95565.00
2022-12-29T12:11:46.771Z,95572.88
2022-12-29T12:12:54.189Z,95572.72
2022-12-29T12:14:04.374Z,95577.03
2022-12-29T12:15:10.659Z,95561.41
2022-12-29T12:16:20.169Z,95568.66
2022-12-29T12:17:30.228Z,95567.53
2022-12-29T12:18:41.348Z,95567.06
2022-12-29T12:19:48.291Z,95574.53
2022-12-29T12:20:58.230Z,95572.28
2022-12-29T12:22:17.367Z,95582.13
2022-12-29T12:23:44.493Z,95572.19
2022-12-29T12:24:53.105Z,95577.03
2022-12-29T12:26:00.739Z,95577.84
2022-12-29T12:27:13.629Z,95580.56
2022-12-29T12:28:21.956Z,95573.31
2022-12-29T12:29:31.623Z,95571.63
2022-12-29T12:30:41.779Z,95576.44
2022-12-29T12:31:52.641Z,95570.69
2022-12-29T12:33:04.530Z,95575.69
2022-12-29T12:34:12.152Z,95566.53
2022-12-29T12:37:16.707Z,95574.22
2022-12-29T12:38:27.601Z,95578.91
2022-12-29T12:39:47.207Z,95565.50
2022-12-29T12:41:07.943Z,95582.38
2022-12-29T12:42:29.834Z,95566.22
2022-12-29T12:43:48.056Z,95568.06
2022-12-29T12:45:00.048Z,95571.50
2022-12-29T12:46:15.263Z,95569.53
2022-12-29T12:47:33.976Z,95568.16
2022-12-29T12:48:52.035Z,95560.47
2022-12-29T12:50:32.309Z,95550.09
2022-12-29T12:51:43.434Z,95557.03
2022-12-29T12:53:11.229Z,95563.09
2022-12-29T12:54:31.580Z,95550.19
2022-12-29T12:55:44.965Z,95568.16
2022-12-29T12:57:04.935Z,95564.00
2022-12-29T12:58:21.132Z,95564.56
2022-12-29T12:59:37.158Z,95549.22
2022-12-29T13:00:55.461Z,95558.13
2022-12-29T13:02:06.560Z,95553.69
2022-12-29T13:03:17.255Z,95567.63
2022-12-29T13:04:56.909Z,95552.28
2022-12-29T13:06:16.353Z,95550.13
2022-12-29T13:07:32.152Z,95573.66
2022-12-29T13:09:00.213Z,95567.16
2022-12-29T13:10:22.192Z,95572.53
2022-12-29T13:11:30.156Z,95566.50
2022-12-29T13:12:44.138Z,95570.19
2022-12-29T13:14:05.763Z,95564.38
2022-12-29T13:15:23.561Z,95566.50